Latest Weather Observations for Amberley

IDQ60801

Issued at 6:02 am EST Friday 20 October 2017 (issued every 30 minutes, with the page automatically refreshed every 10 minutes)

About weather observations | Map of weather stations | Latest weather observations for QLD | Other Formats
Station Details ID: 040004 Name: AMBERLEY AMO Lat: -27.63 Lon: 152.71 Height: 24.2 m
Data from the previous 72 hours. | See also: Recent months at Amberley
Date/Time
EST
Temp
°C
App
Temp
°C
Dew
Point
°C
Rel
Hum
%
Delta-T
°C
Wind Press
QNH
hPa
Press
MSL
hPa
Rain since
9am
mm
Dir  Spd
km/h
Gust
km/h
Spd
kts
Gust
kts
20/06:00am 17.0 18.9 15.8 93 0.7 CALM 0 0 0 0 1021.7 1021.6 -
20/05:30am 16.4 18.2 15.5 94 0.5 CALM 0 0 0 0 1021.3 1021.2 0.0
20/05:00am 16.2 17.9 15.2 94 0.6 CALM 0 0 0 0 1021.2 1021.1 0.0
20/04:30am 16.4 16.8 15.4 94 0.6 S 7 9 4 5 1021.2 1021.1 0.0
20/04:00am 16.2 17.9 15.3 94 0.5 CALM 0 0 0 0 1021.0 1020.9 0.0
20/03:30am 16.3 18.2 15.8 97 0.3 CALM 0 2 0 1 1021.0 1020.9 0.0
20/03:00am 15.8 17.5 15.1 96 0.4 CALM 0 0 0 0 1020.9 1020.8 0.0
20/02:30am 15.6 17.2 14.9 96 0.4 CALM 0 0 0 0 1021.3 1021.2 0.0
20/02:00am 15.8 17.4 14.9 94 0.5 CALM 0 0 0 0 1021.6 1021.5 0.0
20/01:30am 16.0 16.3 15.0 94 0.6 S 7 9 4 5 1022.0 1021.9 0.0
20/01:00am 16.1 17.8 15.2 94 0.5 CALM 0 0 0 0 1022.2 1022.1 0.0
20/12:30am 16.2 17.6 15.3 94 0.5 SW 2 7 1 4 1022.8 1022.7 0.0
20/12:00am 15.9 17.5 15.0 94 0.5 CALM 0 0 0 0 1023.2 1023.1 0.0
 
Date/Time
EST
Temp
°C
App
Temp
°C
Dew
Point
°C
Rel
Hum
%
Delta-T
°C
Wind Press
QNH
hPa
Press
MSL
hPa
Rain since
9am
mm
Dir  Spd
km/h
Gust
km/h
Spd
kts
Gust
kts
19/11:30pm 15.4 15.6 14.7 96 0.4 WNW 7 9 4 5 1023.6 1023.5 0.0
19/11:00pm 15.5 17.0 14.6 94 0.5 CALM 0 0 0 0 1023.9 1023.8 0.0
19/10:30pm 16.1 17.6 14.7 91 0.8 CALM 0 0 0 0 1024.1 1024.0 0.0
19/10:00pm 15.8 17.3 14.6 93 0.7 CALM 0 0 0 0 1024.3 1024.2 0.0
19/09:30pm 17.3 19.0 15.2 87 1.2 CALM 0 0 0 0 1024.4 1024.3 0.0
19/09:00pm 17.5 18.7 14.9 85 1.5 SE 2 7 1 4 1024.4 1024.3 0.0
19/08:30pm 17.6 17.9 14.6 82 1.7 ESE 6 7 3 4 1024.4 1024.3 0.0
19/08:00pm 19.2 18.8 15.3 78 2.3 E 11 11 6 6 1024.2 1024.1 0.0
19/07:30pm 20.2 20.1 14.9 71 3.1 E 9 13 5 7 1024.1 1024.0 0.0
19/07:00pm 20.4 19.1 14.7 70 3.3 NNE 15 19 8 10 1023.8 1023.7 0.0
19/06:30pm 21.0 19.2 14.5 66 3.8 NE 17 24 9 13 1023.6 1023.5 0.0
19/06:00pm 21.4 20.8 14.7 65 3.9 ENE 11 15 6 8 1023.4 1023.3 0.0
19/05:30pm 21.8 20.4 14.6 63 4.2 ENE 15 20 8 11 1023.0 1022.9 0.0
19/05:00pm 22.3 19.9 14.4 61 4.6 ENE 20 26 11 14 1022.8 1022.7 0.0
19/04:30pm 22.8 20.9 14.3 58 5.0 ENE 17 24 9 13 1022.6 1022.5 0.0
19/04:00pm 23.1 20.7 14.4 58 5.1 E 20 28 11 15 1022.4 1022.3 0.0
19/03:30pm 23.6 20.9 14.6 57 5.3 E 22 28 12 15 1022.4 1022.3 0.0
19/03:00pm 23.3 21.2 14.7 58 5.1 E 19 24 10 13 1022.7 1022.6 0.0
19/02:30pm 23.1 21.3 15.4 62 4.6 E 19 30 10 16 1022.9 1022.8 0.0
19/02:00pm 23.1 20.9 14.8 59 4.9 E 20 32 11 17 1023.2 1023.1 0.0
19/01:30pm 22.6 19.7 15.2 63 4.4 ENE 24 35 13 19 1023.7 1023.6 0.0
19/01:00pm 23.0 19.9 14.5 58 5.0 ENE 24 33 13 18 1023.9 1023.8 0.0
19/12:30pm 23.1 20.6 15.2 61 4.7 E 22 33 12 18 1024.2 1024.1 0.0
19/12:00pm 23.2 20.8 14.3 57 5.2 E 20 28 11 15 1024.4 1024.3 0.0
19/11:30am 23.5 21.3 14.9 58 5.1 ENE 20 30 11 16 1024.5 1024.4 0.0
19/11:00am 23.0 22.0 15.5 62 4.5 ENE 15 24 8 13 1024.8 1024.7 0.0
19/10:30am 22.4 20.4 15.5 65 4.1 ENE 20 43 11 23 1025.2 1025.1 0.0
19/10:00am 22.3 21.6 16.3 69 3.6 ENE 15 20 8 11 1025.2 1025.1 0.0
19/09:30am 20.6 17.8 16.3 76 2.6 ENE 26 35 14 19 1025.5 1025.4 0.0
19/09:00am 21.5 20.0 15.4 68 3.6 E 17 26 9 14 1025.6 1025.5 1.2
19/08:30am 21.9 20.0 15.7 68 3.7 E 20 30 11 16 1025.7 1025.6 1.2
19/08:00am 21.5 21.1 16.2 72 3.2 ESE 13 17 7 9 1025.6 1025.5 1.2
19/07:30am 20.0 20.6 16.9 82 1.9 S 9 13 5 7 1025.7 1025.6 1.2
19/07:00am 19.4 19.5 16.6 84 1.7 SSW 11 13 6 7 1025.6 1025.5 1.2
19/06:30am 18.1 20.3 16.4 90 1.0 CALM 0 0 0 0 1025.5 1025.4 1.2
19/06:00am 17.6 19.6 15.9 90 1.0 CALM 0 0 0 0 1025.2 1025.1 1.2
19/05:30am 17.4 17.7 16.0 91 0.8 SSE 9 11 5 6 1025.0 1024.9 1.2
19/05:00am 17.8 18.3 16.5 92 0.8 SSE 9 13 5 7 1024.8 1024.7 1.2
19/04:30am 17.5 19.7 16.5 94 0.6 CALM 0 0 0 0 1024.6 1024.5 1.2
19/04:00am 17.6 19.9 16.8 95 0.5 CALM 0 6 0 3 1024.7 1024.6 1.2
19/03:30am 17.7 20.1 16.9 95 0.5 CALM 0 0 0 0 1024.5 1024.4 1.2
19/03:00am 17.6 19.8 16.6 94 0.6 CALM 0 0 0 0 1024.3 1024.2 1.2
19/02:30am 17.4 17.9 16.6 95 0.5 S 9 9 5 5 1024.3 1024.2 1.2
19/02:00am 17.3 19.5 16.5 95 0.5 CALM 0 6 0 3 1024.4 1024.3 1.2
19/01:30am 17.7 18.3 16.9 95 0.5 S 9 13 5 7 1024.8 1024.7 1.2
19/01:00am 17.8 18.4 16.8 94 0.6 S 9 13 5 7 1025.1 1025.0 1.2
19/12:30am 17.7 18.3 16.7 94 0.6 SE 9 11 5 6 1025.4 1025.3 1.2
19/12:11am 17.8 18.0 16.8 94 0.6 ESE 11 13 6 7 1025.5 1025.4 1.0
19/12:00am 17.8 18.4 16.8 94 0.6 E 9 15 5 8 1025.6 1025.5 1.0
 
Date/Time
EST
Temp
°C
App
Temp
°C
Dew
Point
°C
Rel
Hum
%
Delta-T
°C
Wind Press
QNH
hPa
Press
MSL
hPa
Rain since
9am
mm
Dir  Spd
km/h
Gust
km/h
Spd
kts
Gust
kts
18/11:30pm 17.9 17.7 16.7 93 0.7 SE 13 19 7 10 1026.1 1026.0 0.8
18/11:08pm 18.0 18.4 17.2 95 0.5 SSE 11 15 6 8 1026.2 1026.1 0.8
18/11:00pm 17.9 18.7 17.2 96 0.4 SE 9 13 5 7 1026.3 1026.3 0.8
18/10:45pm 18.1 17.7 17.1 94 0.6 ESE 15 20 8 11 1026.3 1026.3 0.8
18/10:30pm 18.3 17.8 17.0 92 0.8 SE 15 20 8 11 1026.4 1026.4 0.6
18/10:11pm 18.4 18.7 17.1 92 0.8 SE 11 19 6 10 1026.5 1026.5 0.6
18/10:00pm 18.3 20.0 17.1 93 0.7 SE 4 11 2 6 1026.5 1026.5 0.6
18/09:30pm 18.2 19.3 17.2 94 0.6 ESE 7 9 4 5 1026.3 1026.3 0.6
18/09:21pm 18.2 19.0 17.2 94 0.6 SE 9 11 5 6 1026.4 1026.4 0.6
18/09:20pm 18.2 19.0 17.2 94 0.6 SE 9 11 5 6 1026.4 1026.4 0.6
18/09:03pm 18.2 18.2 17.2 94 0.6 ESE 13 20 7 11 1026.4 1026.4 0.6
18/09:00pm 18.3 18.6 17.1 93 0.7 SE 11 17 6 9 1026.4 1026.4 0.6
18/08:56pm 18.3 18.3 17.1 93 0.7 SE 13 17 7 9 1026.4 1026.4 0.6
18/08:30pm 18.3 18.3 17.3 94 0.6 SE 13 17 7 9 1026.2 1026.1 0.4
18/08:25pm 18.4 18.4 17.2 93 0.7 SE 13 17 7 9 1026.1 1026.0 0.4
18/08:04pm 18.4 18.4 17.2 93 0.7 E 13 15 7 8 1025.9 1025.8 0.2
18/08:00pm 18.4 18.4 17.2 93 0.7 E 13 15 7 8 1025.8 1025.7 0.2
18/07:42pm 18.6 18.1 16.9 90 1.0 SE 15 19 8 10 1025.7 1025.6 0.2
18/07:30pm 19.0 18.0 16.7 86 1.4 SE 17 19 9 10 1025.5 1025.4 0.2
18/07:08pm 19.0 18.8 16.8 87 1.3 SE 13 19 7 10 1025.1 1025.0 0.2
18/07:00pm 19.0 18.4 16.7 86 1.4 SE 15 20 8 11 1025.0 1024.9 0.2
18/06:30pm 18.7 17.8 16.9 89 1.1 SE 17 26 9 14 1024.7 1024.6 0.2
18/06:23pm 18.7 17.8 16.9 89 1.1 SE 17 26 9 14 1024.6 1024.5 0.2
18/06:00pm 19.3 18.3 16.5 84 1.7 E 17 22 9 12 1024.3 1024.2 0.2
18/05:30pm 19.9 17.3 16.0 78 2.3 ESE 24 35 13 19 1023.9 1023.8 0.2
18/05:00pm 20.8 17.7 15.6 72 3.1 ESE 26 35 14 19 1023.5 1023.4 0.2
18/04:30pm 21.4 19.2 15.9 71 3.3 E 22 30 12 16 1023.2 1023.1 0.2
18/04:00pm 22.0 18.7 16.0 68 3.6 E 28 39 15 21 1023.1 1023.0 0.2
18/03:30pm 22.1 18.6 15.4 65 4.0 ESE 28 39 15 21 1022.9 1022.8 0.2
18/03:00pm 22.6 18.6 15.2 63 4.4 ESE 30 39 16 21 1023.0 1022.9 0.2
18/02:30pm 23.1 20.2 15.0 60 4.8 E 24 37 13 20 1023.1 1023.0 0.2
18/02:23pm 23.3 21.2 15.3 60 4.8 E 20 28 11 15 1023.0 1022.9 0.2
18/02:00pm 23.4 18.5 15.2 60 4.9 ESE 35 50 19 27 1023.2 1023.1 0.2
18/01:54pm 23.5 19.2 15.5 60 4.8 E 32 50 17 27 1023.3 1023.2 0.2
18/01:30pm 22.2 18.8 15.9 67 3.8 E 28 39 15 21 1023.6 1023.5 0.2
18/01:00pm 22.3 19.7 16.0 67 3.8 ESE 24 32 13 17 1023.8 1023.7 0.2
18/12:30pm 21.5 17.8 16.9 75 2.8 E 32 44 17 24 1024.3 1024.2 0.2
18/12:00pm 22.4 19.9 17.2 72 3.2 E 26 35 14 19 1024.3 1024.2 0.2
18/11:30am 20.4 19.0 18.0 86 1.5 ESE 22 33 12 18 1024.7 1024.6 0.2
18/11:00am 20.4 17.3 18.3 88 1.3 ESE 32 44 17 24 1024.7 1024.6 0.0
18/10:48am 22.3 18.4 16.5 69 3.5 ESE 32 50 17 27 1024.5 1024.4 0.0
18/10:30am 22.7 19.3 16.8 69 3.6 ESE 30 43 16 23 1024.6 1024.5 0.0
18/10:00am 22.0 19.0 16.9 73 3.1 E 28 37 15 20 1024.8 1024.7 0.0
18/09:30am 22.0 19.0 16.7 72 3.2 E 28 39 15 21 1024.7 1024.6 0.0
18/09:00am 21.5 18.9 17.8 79 2.3 E 28 37 15 20 1024.9 1024.8 3.0
18/08:30am 19.7 17.5 16.9 84 1.7 E 24 33 13 18 1025.0 1024.9 3.0
18/08:10am 20.0 18.7 16.7 81 2.0 ESE 19 26 10 14 1024.6 1024.5 3.0
18/08:00am 19.8 18.4 17.0 84 1.7 ESE 20 32 11 17 1024.6 1024.5 3.0
18/07:58am 19.5 18.0 16.7 84 1.7 ESE 20 32 11 17 1024.6 1024.5 3.0
18/07:45am 19.1 17.1 16.4 84 1.6 ESE 22 30 12 16 1024.5 1024.4 3.0
18/07:30am 19.2 18.1 16.4 84 1.7 ESE 17 32 9 17 1024.3 1024.2 3.0
18/07:00am 18.8 17.4 16.6 87 1.3 SE 19 24 10 13 1024.0 1023.9 3.0
18/06:30am 18.4 16.8 16.4 88 1.2 ESE 20 30 11 16 1023.9 1023.8 3.0
18/06:02am 18.4 16.3 16.2 87 1.3 ESE 22 30 12 16 1023.6 1023.5 3.0
18/06:00am 18.4 16.7 16.2 87 1.3 ESE 20 28 11 15 1023.6 1023.5 3.0
18/05:30am 18.2 17.9 16.5 90 1.0 SE 13 17 7 9 1023.2 1023.1 3.0
18/05:17am 18.1 17.5 16.6 91 0.9 SE 15 17 8 9 1023.0 1022.9 3.0
18/05:00am 18.1 17.5 16.6 91 0.9 SE 15 22 8 12 1022.8 1022.7 2.8
18/04:47am 18.1 17.2 16.8 92 0.8 SE 17 22 9 12 1022.6 1022.5 2.8
18/04:30am 17.9 17.8 16.9 94 0.6 SE 13 15 7 8 1022.3 1022.2 2.8
18/04:28am 17.9 17.8 16.9 94 0.6 SE 13 15 7 8 1022.3 1022.2 2.8
18/04:17am 17.8 18.1 17.0 95 0.5 SE 11 17 6 9 1022.3 1022.2 2.8
18/04:00am 17.8 17.7 17.0 95 0.5 SE 13 17 7 9 1022.1 1022.0 2.8
18/03:46am 17.9 17.7 16.7 93 0.7 SE 13 19 7 10 1021.9 1021.8 2.8
18/03:37am 17.9 17.7 16.7 93 0.7 SE 13 17 7 9 1021.9 1021.8 2.6
18/03:30am 17.9 17.7 16.7 93 0.7 SE 13 17 7 9 1021.8 1021.7 2.6
18/03:23am 17.9 17.7 16.7 93 0.7 SE 13 19 7 10 1021.8 1021.7 2.6
18/03:14am 18.0 17.4 16.7 92 0.8 SE 15 20 8 11 1021.9 1021.8 2.6
18/03:13am 18.1 17.5 16.6 91 0.9 SE 15 20 8 11 1021.9 1021.8 2.6
18/03:00am 18.4 17.3 16.4 88 1.2 SE 17 24 9 13 1021.9 1021.8 2.4
18/02:36am 19.0 17.8 16.0 83 1.8 SE 17 28 9 15 1021.9 1021.8 2.4
18/02:30am 19.0 17.8 16.0 83 1.8 SE 17 24 9 13 1021.9 1021.8 2.4
18/02:29am 19.1 17.8 15.9 82 1.9 SE 17 24 9 13 1022.0 1021.9 2.4
18/02:00am 19.1 17.4 15.7 80 2.0 SE 19 28 10 15 1022.0 1021.9 2.4
18/01:30am 19.0 17.2 16.0 83 1.8 SE 20 32 11 17 1021.9 1021.8 2.4
18/01:29am 18.9 17.1 16.0 83 1.7 SE 20 32 11 17 1021.9 1021.8 2.4
18/01:00am 18.3 18.1 16.8 91 0.9 SE 13 24 7 13 1022.3 1022.2 2.4
18/12:53am 18.3 18.1 16.8 91 0.9 SE 13 19 7 10 1022.3 1022.2 2.4
18/12:46am 18.2 18.5 16.9 92 0.8 ESE 11 15 6 8 1022.4 1022.3 2.4
18/12:30am 18.3 17.4 16.8 91 0.9 E 17 22 9 12 1022.7 1022.6 2.2
18/12:21am 18.7 18.5 16.7 88 1.2 ESE 13 19 7 10 1022.9 1022.8 2.2
18/12:13am 19.2 18.8 16.2 83 1.8 SE 13 15 7 8 1022.9 1022.8 2.2
18/12:00am 19.3 18.5 16.1 82 1.9 SE 15 19 8 10 1023.0 1022.9 2.2
 
Date/Time
EST
Temp
°C
App
Temp
°C
Dew
Point
°C
Rel
Hum
%
Delta-T
°C
Wind Press
QNH
hPa
Press
MSL
hPa
Rain since
9am
mm
Dir  Spd
km/h
Gust
km/h
Spd
kts
Gust
kts
17/11:46pm 19.1 18.7 16.2 83 1.7 SSE 13 19 7 10 1023.0 1022.9 2.2
17/11:30pm 19.2 18.7 16.0 82 1.9 SE 13 19 7 10 1023.1 1023.0 2.2
17/11:17pm 19.2 18.4 16.0 82 1.9 SE 15 19 8 10 1023.3 1023.2 2.2
17/11:00pm 19.2 18.4 16.2 83 1.8 SE 15 20 8 11 1023.4 1023.3 2.2
17/10:36pm 18.9 17.8 16.4 85 1.5 ESE 17 26 9 14 1023.4 1023.3 2.2
17/10:30pm 18.9 17.9 16.6 86 1.4 ESE 17 24 9 13 1023.4 1023.3 2.2
17/10:17pm 18.9 18.3 16.6 86 1.4 E 15 20 8 11 1023.6 1023.5 2.2
17/10:00pm 19.6 18.7 15.9 79 2.2 SE 15 19 8 10 1023.4 1023.3 2.2
17/09:30pm 19.6 18.3 15.9 79 2.2 ESE 17 28 9 15 1023.3 1023.2 2.2
17/09:00pm 19.5 17.7 16.0 80 2.1 SE 20 28 11 15 1023.0 1022.9 2.2
17/08:30pm 19.4 18.9 16.0 81 2.0 SE 13 19 7 10 1023.0 1022.9 2.2
17/08:00pm 19.4 18.2 16.0 81 2.0 SE 17 22 9 12 1023.1 1023.0 2.2
17/07:30pm 19.4 18.2 16.2 82 1.9 SE 17 24 9 13 1022.8 1022.7 2.2
17/07:00pm 19.5 17.1 16.3 82 1.9 ESE 24 33 13 18 1022.5 1022.4 2.2
17/06:30pm 19.6 17.2 16.4 82 1.9 ESE 24 39 13 21 1022.2 1022.1 2.2
17/06:00pm 19.5 18.2 16.8 84 1.6 ESE 19 30 10 16 1021.9 1021.8 2.2
17/05:30pm 19.6 18.8 17.0 85 1.6 ESE 17 26 9 14 1021.5 1021.4 2.2
17/05:00pm 19.1 18.5 17.6 91 0.9 ESE 17 28 9 15 1020.8 1020.7 2.2
17/04:30pm 19.0 18.4 17.5 91 0.9 SE 17 26 9 14 1020.7 1020.6 2.2
17/04:00pm 18.7 17.8 17.7 94 0.6 ESE 19 28 10 15 1020.7 1020.6 1.8
17/03:30pm 19.1 17.2 17.6 91 0.9 SE 24 35 13 19 1020.2 1020.1 1.6
17/03:00pm 19.1 18.7 18.0 93 0.7 SE 17 26 9 14 1020.3 1020.2 1.6
17/02:38pm 19.3 17.5 17.8 91 0.9 SE 24 33 13 18 1020.4 1020.3 1.4
17/02:30pm 19.5 17.6 17.7 89 1.1 SE 24 33 13 18 1020.4 1020.3 1.4
17/02:00pm 19.8 18.7 17.7 88 1.3 SE 20 28 11 15 1020.6 1020.5 1.4
17/01:46pm 19.7 17.9 17.9 89 1.1 ESE 24 35 13 19 1020.7 1020.6 1.4
17/01:30pm 19.4 17.3 18.1 92 0.8 ESE 26 39 14 21 1020.7 1020.6 1.4
17/01:11pm 19.8 17.2 17.8 88 1.2 ESE 28 39 15 21 1020.7 1020.6 1.0
17/01:00pm 20.5 18.7 17.9 85 1.6 SE 24 37 13 20 1020.6 1020.5 0.8
17/12:54pm 20.0 17.8 16.9 82 1.9 ESE 24 33 13 18 1020.7 1020.6 0.8
17/12:30pm 19.8 17.5 17.5 86 1.4 ESE 26 35 14 19 1021.2 1021.1 0.6
17/12:29pm 19.8 17.1 17.5 86 1.4 ESE 28 37 15 20 1021.2 1021.1 0.6
17/12:13pm 20.7 19.4 18.1 85 1.6 ESE 22 33 12 18 1021.3 1021.2 0.6
17/12:00pm 20.2 17.1 18.3 89 1.2 ESE 32 43 17 23 1021.4 1021.3 0.6
17/11:54am 20.5 16.9 17.2 81 2.0 ESE 32 43 17 23 1021.4 1021.3 0.6
17/11:50am 21.8 18.6 16.3 71 3.3 ESE 28 41 15 22 1021.1 1021.0 0.0
17/11:30am 21.9 18.8 16.6 72 3.2 ESE 28 39 15 21 1021.1 1021.0 0.0
17/11:00am 22.2 18.6 17.1 73 3.1 ESE 32 50 17 27 1021.6 1021.5 0.0
17/10:52am 22.0 18.4 17.1 74 3.0 SE 32 50 17 27 1021.8 1021.7 0.0
17/10:30am 21.1 17.1 16.6 75 2.7 ESE 33 46 18 25 1021.9 1021.8 0.0
17/10:00am 20.8 18.2 16.8 78 2.4 SE 26 35 14 19 1021.8 1021.7 0.0
17/09:30am 20.6 17.4 16.4 77 2.5 ESE 28 43 15 23 1021.8 1021.7 0.0
17/09:00am 21.1 17.9 16.3 74 2.9 SE 28 39 15 21 1021.5 1021.4 1.6
17/08:30am 20.7 18.8 16.6 77 2.5 SE 22 30 12 16 1021.4 1021.3 1.6
17/08:00am 20.7 18.8 16.6 77 2.5 SE 22 30 12 16 1021.1 1021.0 1.6
17/07:30am 20.0 18.1 16.7 81 2.0 SE 22 37 12 20 1021.1 1021.0 1.6
17/07:00am 20.0 18.5 16.7 81 2.0 ESE 20 28 11 15 1021.1 1021.0 1.6
17/06:30am 20.2 18.7 16.2 78 2.4 SE 19 26 10 14 1019.9 1019.8 1.6

Other Formats:

Comma delimited format used in spreadsheet applications
http://www.bom.gov.au/fwo/IDQ60801/IDQ60801.94568.axf

JavaScript Object Notation format (JSON) in row-major order
http://www.bom.gov.au/fwo/IDQ60801/IDQ60801.94568.json